createdAt,value
2024-05-09T00:00:29.914Z,91.8570
2024-05-09T00:01:23.495Z,91.8541
2024-05-09T00:02:25.312Z,91.6789
2024-05-09T00:03:27.051Z,91.2505
2024-05-09T00:04:28.728Z,91.3307
2024-05-09T00:05:30.608Z,91.3959
2024-05-09T00:06:32.320Z,91.8106
2024-05-09T00:07:34.060Z,91.9007
2024-05-09T00:08:35.879Z,92.0408
2024-05-09T00:09:37.882Z,92.0155
2024-05-09T00:10:40.657Z,92.0806
2024-05-09T00:11:40.678Z,92.3624
2024-05-09T00:12:42.439Z,92.1954
2024-05-09T00:13:44.338Z,92.2386
2024-05-09T00:14:45.960Z,92.1518
2024-05-09T00:15:47.589Z,92.3096
2024-05-09T00:16:49.312Z,92.0562
2024-05-09T00:17:51.634Z,91.9702
2024-05-09T00:18:54.297Z,91.9191
2024-05-09T00:19:56.166Z,91.9292
2024-05-09T00:20:57.942Z,91.6011
2024-05-09T00:21:59.640Z,91.6137
2024-05-09T00:23:01.458Z,91.7234
2024-05-09T00:24:03.233Z,91.7323
2024-05-09T00:25:04.871Z,91.7839
2024-05-09T00:26:06.634Z,91.7593
2024-05-09T00:27:08.945Z,91.9376
2024-05-09T00:28:09.131Z,92.0455
2024-05-09T00:29:10.778Z,92.2189
2024-05-09T00:30:17.824Z,92.2566
2024-05-09T00:31:14.527Z,92.3957
2024-05-09T00:32:16.362Z,92.2882
2024-05-09T00:33:18.377Z,92.4997
2024-05-09T00:34:20.327Z,92.6397
2024-05-09T00:35:22.266Z,92.8991
2024-05-09T00:36:24.240Z,92.6872
2024-05-09T00:37:26.051Z,92.7486
2024-05-09T00:38:27.868Z,92.7758
2024-05-09T00:39:29.614Z,92.9719
2024-05-09T00:40:38.586Z,93.1096
2024-05-09T00:41:33.413Z,93.2549
2024-05-09T00:42:35.178Z,93.2164
2024-05-09T00:43:36.948Z,93.3164
2024-05-09T00:44:38.662Z,93.3940
2024-05-09T00:45:40.423Z,93.3268
2024-05-09T00:46:42.141Z,93.0815
2024-05-09T00:47:44.441Z,93.0093
2024-05-09T00:48:46.464Z,92.6454
2024-05-09T00:49:48.497Z,92.5667
2024-05-09T00:50:50.305Z,92.4767
2024-05-09T00:51:52.211Z,92.5837
2024-05-09T00:52:53.846Z,92.3830
2024-05-09T00:53:55.938Z,92.3640
2024-05-09T00:54:57.638Z,92.4469
2024-05-09T00:55:59.404Z,92.2302
2024-05-09T00:57:01.057Z,91.9957
2024-05-09T00:58:02.881Z,92.0281
2024-05-09T00:59:04.672Z,92.1267
2024-05-09T01:00:12.079Z,91.7180
2024-05-09T01:01:08.561Z,91.4463
2024-05-09T01:02:10.440Z,91.5588
2024-05-09T01:03:13.904Z,91.7332
2024-05-09T01:04:13.581Z,91.6574
2024-05-09T01:05:15.394Z,91.3195
2024-05-09T01:06:17.269Z,91.4807
2024-05-09T01:07:19.051Z,91.5464
2024-05-09T01:08:21.045Z,91.4666
2024-05-09T01:09:22.911Z,91.3336
2024-05-09T01:10:32.210Z,91.2711
2024-05-09T01:11:26.917Z,91.0833
2024-05-09T01:12:28.846Z,91.1985
2024-05-09T01:13:30.538Z,91.1948
2024-05-09T01:14:32.444Z,90.9917
2024-05-09T01:15:34.215Z,90.8348
2024-05-09T01:16:36.162Z,90.8958
2024-05-09T01:17:38.082Z,91.0362
2024-05-09T01:18:40.032Z,90.9907
2024-05-09T01:19:41.941Z,90.8924
2024-05-09T01:20:45.313Z,91.0751
2024-05-09T01:21:44.676Z,90.9166
2024-05-09T01:22:46.423Z,91.0774
2024-05-09T01:23:48.115Z,91.2698
2024-05-09T01:24:49.977Z,91.1686
2024-05-09T01:25:51.679Z,90.9393
2024-05-09T01:26:53.472Z,90.7700
2024-05-09T01:27:55.223Z,90.8856
2024-05-09T01:28:56.972Z,90.7141
2024-05-09T01:29:58.748Z,90.7941
2024-05-09T01:31:00.464Z,90.7045
2024-05-09T01:32:02.320Z,90.9154
2024-05-09T01:33:04.957Z,90.9492
2024-05-09T01:34:04.937Z,90.8899
2024-05-09T01:35:06.653Z,90.9992
2024-05-09T01:36:08.594Z,91.0805
2024-05-09T01:37:10.363Z,90.8567
2024-05-09T01:38:12.312Z,91.1495
2024-05-09T01:39:14.209Z,90.9418
2024-05-09T01:40:21.961Z,90.8980
2024-05-09T01:41:18.078Z,91.0177
2024-05-09T01:42:19.782Z,91.0566
2024-05-09T01:43:21.590Z,90.7646
2024-05-09T01:44:23.412Z,91.0048
2024-05-09T01:45:25.116Z,90.8438
2024-05-09T01:46:26.846Z,90.7367
2024-05-09T01:47:28.632Z,90.6486
2024-05-09T01:48:30.463Z,90.6273
2024-05-09T01:49:32.277Z,90.6655
2024-05-09T01:50:39.108Z,91.0579
2024-05-09T01:51:36.288Z,91.0131
2024-05-09T01:52:38.030Z,90.6100
2024-05-09T01:53:39.856Z,90.5758
2024-05-09T01:54:41.617Z,90.7034
2024-05-09T01:55:43.591Z,90.6636
2024-05-09T01:56:45.406Z,90.4171
2024-05-09T01:57:47.157Z,90.4662
2024-05-09T01:58:48.926Z,90.5047
2024-05-09T01:59:50.692Z,90.5489
2024-05-09T02:00:52.616Z,90.7566
2024-05-09T02:01:57.004Z,90.8220
2024-05-09T02:02:56.921Z,90.7486
2024-05-09T02:03:59.065Z,90.6661
2024-05-09T02:05:01.239Z,90.5180
2024-05-09T02:06:03.162Z,90.7754
2024-05-09T02:07:04.930Z,90.9682
2024-05-09T02:08:06.717Z,90.8911
2024-05-09T02:09:08.370Z,91.0368
2024-05-09T02:10:16.533Z,90.8817
2024-05-09T02:11:12.442Z,90.8385
2024-05-09T02:12:14.608Z,90.4364
2024-05-09T02:13:16.729Z,90.6431
2024-05-09T02:14:18.552Z,90.6443
2024-05-09T02:15:20.287Z,90.7750
2024-05-09T02:16:22.044Z,90.7529
2024-05-09T02:17:23.908Z,90.7417
2024-05-09T02:18:25.807Z,90.5838
2024-05-09T02:19:27.710Z,90.6428
2024-05-09T02:20:34.185Z,90.7777
2024-05-09T02:21:31.831Z,90.4793
2024-05-09T02:22:33.569Z,90.6630
2024-05-09T02:23:35.353Z,90.5190
2024-05-09T02:24:37.137Z,90.6748
2024-05-09T02:25:38.891Z,90.8294
2024-05-09T02:26:40.752Z,90.8670
2024-05-09T02:27:42.458Z,90.8931
2024-05-09T02:28:44.161Z,91.0011
2024-05-09T02:29:45.825Z,90.7559
2024-05-09T02:30:47.560Z,90.7971
2024-05-09T02:31:49.542Z,90.9669
2024-05-09T02:32:51.450Z,91.0933
2024-05-09T02:33:53.438Z,91.1967
2024-05-09T02:34:55.393Z,91.1498
2024-05-09T02:35:57.083Z,90.9868
2024-05-09T02:36:58.910Z,91.2307
2024-05-09T02:38:00.953Z,91.4466
2024-05-09T02:39:02.740Z,91.3818
2024-05-09T02:40:05.648Z,91.1674
2024-05-09T02:41:04.770Z,91.2377
2024-05-09T02:42:06.455Z,91.4490
2024-05-09T02:43:09.314Z,91.4017
2024-05-09T02:44:09.750Z,91.4725
2024-05-09T02:45:11.698Z,91.2291
2024-05-09T02:46:13.411Z,91.3314
2024-05-09T02:47:15.248Z,91.5113
2024-05-09T02:48:17.056Z,91.4439
2024-05-09T02:49:19.112Z,91.4645
2024-05-09T02:50:29.712Z,91.4603
2024-05-09T02:51:23.179Z,91.6418
2024-05-09T02:52:24.921Z,91.5336
2024-05-09T02:53:26.819Z,91.4237
2024-05-09T02:54:28.538Z,91.5948
2024-05-09T02:55:30.254Z,91.5783
2024-05-09T02:56:32.005Z,91.6585
2024-05-09T02:57:33.781Z,91.7071
2024-05-09T02:58:35.485Z,91.6760
2024-05-09T02:59:37.326Z,91.7001
2024-05-09T03:00:41.505Z,91.7468
2024-05-09T03:01:39.332Z,91.6058
2024-05-09T03:02:41.117Z,91.7753
2024-05-09T03:03:43.109Z,91.7701
2024-05-09T03:04:45.175Z,91.7936
2024-05-09T03:05:47.147Z,91.6924
2024-05-09T03:06:48.949Z,91.5266
2024-05-09T03:07:50.746Z,91.5766
2024-05-09T03:08:52.511Z,91.5929
2024-05-09T03:09:54.220Z,91.7525
2024-05-09T03:10:56.139Z,91.6250
2024-05-09T03:11:57.951Z,92.0039
2024-05-09T03:12:59.815Z,91.6508
2024-05-09T03:14:01.574Z,91.6981
2024-05-09T03:15:03.324Z,91.7078
2024-05-09T03:16:05.126Z,91.6616
2024-05-09T03:17:07.018Z,91.7196
2024-05-09T03:18:08.885Z,91.8128
2024-05-09T03:19:11.018Z,91.7535
2024-05-09T03:20:20.483Z,91.6512
2024-05-09T03:21:14.974Z,91.6202
2024-05-09T03:22:16.612Z,91.5307
2024-05-09T03:23:18.428Z,91.6050
2024-05-09T03:24:20.137Z,91.4995
2024-05-09T03:25:21.872Z,91.6133
2024-05-09T03:26:23.804Z,91.7681
2024-05-09T03:27:25.580Z,91.8432
2024-05-09T03:28:27.248Z,91.8667
2024-05-09T03:29:29.009Z,91.7253
2024-05-09T03:30:39.419Z,91.7157
2024-05-09T03:31:32.855Z,91.9098
2024-05-09T03:32:34.688Z,92.0227
2024-05-09T03:33:36.860Z,91.9690
2024-05-09T03:34:39.023Z,91.7895
2024-05-09T03:35:40.936Z,91.9153
2024-05-09T03:36:42.727Z,91.7508
2024-05-09T03:37:44.465Z,91.8393
2024-05-09T03:38:46.260Z,91.8310
2024-05-09T03:39:47.927Z,91.8168
2024-05-09T03:40:50.371Z,91.9039
2024-05-09T03:41:50.051Z,91.8411
2024-05-09T03:42:51.818Z,91.9678
2024-05-09T03:43:53.589Z,92.0202
2024-05-09T03:44:55.309Z,91.8930
2024-05-09T03:45:57.044Z,91.6180
2024-05-09T03:46:58.972Z,91.9511
2024-05-09T03:48:00.816Z,91.9457
2024-05-09T03:49:02.787Z,91.8769
2024-05-09T03:50:05.608Z,92.0256
2024-05-09T03:51:05.037Z,91.8818
2024-05-09T03:52:06.782Z,91.9506
2024-05-09T03:53:08.582Z,91.9181
2024-05-09T03:54:10.223Z,91.9536
2024-05-09T03:55:12.042Z,92.0508
2024-05-09T03:56:13.777Z,91.9896
2024-05-09T03:57:15.549Z,91.9647
2024-05-09T03:58:17.261Z,92.0148
2024-05-09T03:59:19.060Z,92.0604
2024-05-09T04:00:30.463Z,92.1321
2024-05-09T04:01:22.876Z,92.1682
2024-05-09T04:02:24.641Z,92.2676
2024-05-09T04:03:26.878Z,92.2662
2024-05-09T04:04:28.902Z,92.5324
2024-05-09T04:05:30.918Z,92.3396
2024-05-09T04:06:32.973Z,92.2705
2024-05-09T04:07:34.698Z,92.2990
2024-05-09T04:08:36.605Z,92.1688
2024-05-09T04:09:38.544Z,92.1373
2024-05-09T04:10:40.317Z,92.0802
2024-05-09T04:11:42.140Z,92.0410
2024-05-09T04:12:43.855Z,91.9147
2024-05-09T04:13:45.636Z,91.6374
2024-05-09T04:14:47.429Z,91.5379
2024-05-09T04:15:49.171Z,91.5080
2024-05-09T04:16:50.935Z,91.3115
2024-05-09T04:17:52.877Z,91.2879
2024-05-09T04:18:54.834Z,91.1427
2024-05-09T04:19:56.574Z,91.1808
2024-05-09T04:20:58.328Z,91.4989
2024-05-09T04:22:00.052Z,91.4243
2024-05-09T04:23:01.811Z,91.2372
2024-05-09T04:24:03.597Z,91.3535
2024-05-09T04:25:05.290Z,91.2741
2024-05-09T04:26:07.068Z,91.3759
2024-05-09T04:27:08.760Z,91.1910
2024-05-09T04:28:10.485Z,91.0512
2024-05-09T04:29:12.443Z,91.1738
2024-05-09T04:30:21.702Z,90.9474
2024-05-09T04:31:16.289Z,91.1205
2024-05-09T04:32:18.037Z,91.2419
2024-05-09T04:33:20.345Z,91.3182
2024-05-09T04:34:22.671Z,91.0927
2024-05-09T04:35:24.767Z,91.1306
2024-05-09T04:36:26.594Z,91.3336
2024-05-09T04:37:28.308Z,91.2633
2024-05-09T04:38:30.028Z,91.1272
2024-05-09T04:39:31.855Z,91.0131
2024-05-09T04:40:36.199Z,91.0362
2024-05-09T04:41:36.356Z,91.1006
2024-05-09T04:42:38.126Z,91.0493
2024-05-09T04:43:39.810Z,91.2137
2024-05-09T04:44:41.657Z,91.2591
2024-05-09T04:45:43.364Z,90.9738
2024-05-09T04:46:45.177Z,90.6558
2024-05-09T04:47:47.067Z,90.4601
2024-05-09T04:48:49.101Z,90.5456
2024-05-09T04:49:51.035Z,90.5601
2024-05-09T04:50:52.840Z,90.3863
2024-05-09T04:51:54.603Z,90.4883
2024-05-09T04:52:56.387Z,90.7344
2024-05-09T04:53:58.106Z,90.8160
2024-05-09T04:54:59.899Z,90.8451
2024-05-09T04:56:01.672Z,90.8907
2024-05-09T04:57:03.406Z,90.9699
2024-05-09T04:58:05.082Z,91.1398
2024-05-09T04:59:06.972Z,90.8395
2024-05-09T05:00:14.611Z,90.7656
2024-05-09T05:01:10.849Z,90.8817
2024-05-09T05:02:12.821Z,90.7759
2024-05-09T05:03:16.029Z,90.6657
2024-05-09T05:04:15.855Z,90.5890
2024-05-09T05:05:17.902Z,90.7587
2024-05-09T05:06:19.824Z,90.5835
2024-05-09T05:07:21.574Z,90.5370
2024-05-09T05:08:23.417Z,90.7582
2024-05-09T05:09:25.128Z,90.5111
2024-05-09T05:10:33.592Z,90.8184
2024-05-09T05:11:29.145Z,90.8497
2024-05-09T05:12:31.163Z,90.7632
2024-05-09T05:13:33.143Z,90.9198
2024-05-09T05:14:34.954Z,90.8435
2024-05-09T05:15:36.771Z,91.0469
2024-05-09T05:16:38.514Z,90.9680
2024-05-09T05:17:40.555Z,90.6013
2024-05-09T05:18:42.475Z,90.6134
2024-05-09T05:19:44.543Z,90.6378
2024-05-09T05:20:46.531Z,90.6142
2024-05-09T05:21:48.395Z,90.5839
2024-05-09T05:22:50.246Z,90.6794
2024-05-09T05:23:52.049Z,90.7705
2024-05-09T05:24:53.841Z,90.3828
2024-05-09T05:25:55.991Z,90.6939
2024-05-09T05:26:57.937Z,90.8990
2024-05-09T05:27:59.688Z,90.8587
2024-05-09T05:29:01.528Z,90.6168
2024-05-09T05:30:03.576Z,90.6437
2024-05-09T05:31:04.764Z,90.6905
2024-05-09T05:32:06.652Z,91.0559
2024-05-09T05:33:08.585Z,90.9726
2024-05-09T05:34:10.485Z,90.8173
2024-05-09T05:35:12.340Z,90.7541
2024-05-09T05:36:14.099Z,90.8992
2024-05-09T05:37:15.912Z,90.9891
2024-05-09T05:38:17.968Z,90.5545
2024-05-09T05:39:19.894Z,90.7193
2024-05-09T05:40:28.354Z,90.6850
2024-05-09T05:41:23.850Z,90.5599
2024-05-09T05:42:25.603Z,90.7134
2024-05-09T05:43:27.468Z,91.0441
2024-05-09T05:44:29.299Z,91.0806
2024-05-09T05:45:31.118Z,90.7471
2024-05-09T05:46:32.879Z,90.6775
2024-05-09T05:47:34.971Z,90.7003
2024-05-09T05:48:37.145Z,90.5599
2024-05-09T05:49:39.096Z,90.6449
2024-05-09T05:50:41.072Z,90.4736
2024-05-09T05:51:42.840Z,90.3831
2024-05-09T05:52:44.645Z,90.3869
2024-05-09T05:53:46.575Z,90.0771
2024-05-09T05:54:48.363Z,90.1410
2024-05-09T05:55:50.206Z,90.2219
2024-05-09T05:56:52.056Z,90.0615
2024-05-09T05:57:53.853Z,90.4573
2024-05-09T05:58:55.660Z,90.3381
2024-05-09T05:59:57.429Z,90.2193
2024-05-09T06:00:59.230Z,90.2507
2024-05-09T06:02:01.193Z,90.3713
2024-05-09T06:03:03.143Z,90.3105
2024-05-09T06:04:05.076Z,90.3575
2024-05-09T06:05:06.872Z,90.3238
2024-05-09T06:06:08.631Z,90.2307
2024-05-09T06:07:10.417Z,90.1808
2024-05-09T06:08:12.392Z,90.0649
2024-05-09T06:09:14.326Z,89.6875
2024-05-09T06:10:21.466Z,89.2891
2024-05-09T06:11:18.321Z,89.1342
2024-05-09T06:12:20.165Z,89.2622
2024-05-09T06:13:21.995Z,89.3283
2024-05-09T06:14:23.852Z,89.2176
2024-05-09T06:15:25.861Z,89.1040
2024-05-09T06:16:27.614Z,89.0093
2024-05-09T06:17:29.493Z,89.0125
2024-05-09T06:18:31.502Z,89.0515
2024-05-09T06:19:33.702Z,88.9830
2024-05-09T06:20:37.903Z,88.5993
2024-05-09T06:21:37.823Z,88.6112
2024-05-09T06:22:39.603Z,88.3341
2024-05-09T06:23:41.363Z,88.1677
2024-05-09T06:24:43.178Z,87.8606
2024-05-09T06:25:45.099Z,87.8155
2024-05-09T06:26:46.868Z,87.0709
2024-05-09T06:27:48.669Z,87.0025
2024-05-09T06:28:50.523Z,86.8166
2024-05-09T06:29:52.286Z,87.1697
2024-05-09T06:30:54.058Z,86.4927
2024-05-09T06:31:59.523Z,86.1212
2024-05-09T06:32:56.367Z,85.9255
2024-05-09T06:33:58.382Z,85.2596
2024-05-09T06:35:00.296Z,84.7668
2024-05-09T06:36:02.050Z,85.0995
2024-05-09T06:37:03.816Z,84.6828
2024-05-09T06:38:05.696Z,84.3442
2024-05-09T06:39:07.517Z,84.3481
2024-05-09T06:40:10.081Z,84.3506
2024-05-09T06:41:09.317Z,83.9543
2024-05-09T06:42:11.077Z,83.8621
2024-05-09T06:43:12.970Z,84.4698
2024-05-09T06:44:14.793Z,84.3222
2024-05-09T06:45:16.587Z,84.3714
2024-05-09T06:46:18.386Z,84.5404
2024-05-09T06:47:20.358Z,83.9309
2024-05-09T06:48:22.944Z,84.7286
2024-05-09T06:49:22.475Z,84.5957
2024-05-09T06:50:28.146Z,83.4618
2024-05-09T06:51:26.480Z,81.7855
2024-05-09T06:52:28.307Z,82.0061
2024-05-09T06:53:30.105Z,82.9575
2024-05-09T06:54:31.890Z,82.8639
2024-05-09T06:55:33.742Z,83.0967
2024-05-09T06:56:35.575Z,83.5654
2024-05-09T06:57:39.179Z,83.8249
2024-05-09T06:58:37.698Z,83.9295
2024-05-09T06:59:39.484Z,84.0087
2024-05-09T07:00:42.216Z,84.7078
2024-05-09T07:01:41.524Z,84.4516
2024-05-09T07:02:43.365Z,85.3428
2024-05-09T07:03:45.238Z,84.8395
2024-05-09T07:04:47.199Z,84.4878
2024-05-09T07:05:49.865Z,84.6897
2024-05-09T07:06:49.127Z,84.8038
2024-05-09T07:07:50.935Z,84.6120
2024-05-09T07:08:52.863Z,84.9306
2024-05-09T07:09:54.666Z,84.8684
2024-05-09T07:10:56.506Z,84.9793
2024-05-09T07:11:58.370Z,84.6703
2024-05-09T07:13:00.180Z,84.9142
2024-05-09T07:14:02.001Z,84.5923
2024-05-09T07:15:03.814Z,84.0975
2024-05-09T07:16:05.591Z,84.2880
2024-05-09T07:17:07.521Z,84.5539
2024-05-09T07:18:09.524Z,84.3987
2024-05-09T07:19:11.612Z,84.2441
2024-05-09T07:20:23.027Z,84.3725
2024-05-09T07:21:15.776Z,84.1897
2024-05-09T07:22:17.653Z,84.1608
2024-05-09T07:23:19.655Z,84.2213
2024-05-09T07:24:21.725Z,83.7908
2024-05-09T07:25:23.521Z,83.7858
2024-05-09T07:26:25.385Z,83.5344
2024-05-09T07:27:27.207Z,83.6088
2024-05-09T07:28:28.968Z,82.7749
2024-05-09T07:29:30.847Z,83.0487
2024-05-09T07:30:34.399Z,82.7929
2024-05-09T07:31:34.233Z,82.7389
2024-05-09T07:32:36.141Z,82.7135
2024-05-09T07:33:37.957Z,81.8698
2024-05-09T07:34:39.841Z,82.3518
2024-05-09T07:35:41.669Z,82.2898
2024-05-09T07:36:43.393Z,82.1247
2024-05-09T07:37:45.218Z,82.3498
2024-05-09T07:38:46.997Z,82.7747
2024-05-09T07:39:48.795Z,82.9138
2024-05-09T07:40:50.637Z,83.3843
2024-05-09T07:41:52.522Z,83.5671
2024-05-09T07:42:54.290Z,83.6889
2024-05-09T07:43:56.089Z,82.9687
2024-05-09T07:45:14.551Z,83.1595
2024-05-09T07:46:28.567Z,82.5126
2024-05-09T07:53:29.268Z,81.8556
2024-05-09T07:53:37.744Z,82.6982
2024-05-09T07:54:17.031Z,82.1753
2024-05-09T07:55:19.220Z,82.1431
2024-05-09T07:56:22.831Z,81.5511
2024-05-09T07:57:23.109Z,82.1831
2024-05-09T07:58:24.898Z,81.1494
2024-05-09T07:59:26.656Z,81.6974
2024-05-09T08:00:31.516Z,81.1758
2024-05-09T08:01:28.882Z,81.0520
2024-05-09T08:02:30.841Z,80.1895
2024-05-09T08:03:32.976Z,80.4515
2024-05-09T08:04:35.015Z,79.9739
2024-05-09T08:05:37.095Z,79.4942
2024-05-09T08:06:39.097Z,79.3031
2024-05-09T08:07:40.952Z,78.8235
2024-05-09T08:08:42.799Z,77.7309
2024-05-09T08:09:44.665Z,78.4495
2024-05-09T08:10:46.602Z,78.5775
2024-05-09T08:11:48.490Z,78.1556
2024-05-09T08:12:50.487Z,78.5533
2024-05-09T08:13:52.246Z,78.8243
2024-05-09T08:14:54.086Z,78.2822
2024-05-09T08:15:55.945Z,78.9123
2024-05-09T08:16:57.763Z,79.1934
2024-05-09T08:17:59.783Z,80.0768
2024-05-09T08:19:01.731Z,79.6707
2024-05-09T08:20:05.432Z,79.8152
2024-05-09T08:21:04.678Z,79.8072
2024-05-09T08:22:06.794Z,79.0563
2024-05-09T08:23:08.754Z,79.8743
2024-05-09T08:24:10.723Z,79.4612
2024-05-09T08:25:14.161Z,79.0281
2024-05-09T08:26:13.586Z,79.4266
2024-05-09T08:27:15.411Z,79.4155
2024-05-09T08:28:17.388Z,79.5882
2024-05-09T08:29:19.264Z,79.5836
2024-05-09T08:30:25.482Z,79.7586
2024-05-09T08:31:23.554Z,80.1389
2024-05-09T08:32:25.402Z,80.1417
2024-05-09T08:33:27.396Z,80.1174
2024-05-09T08:34:29.480Z,80.5226
2024-05-09T08:35:31.484Z,80.1052
2024-05-09T08:36:33.554Z,80.3536
2024-05-09T08:37:38.783Z,80.1790
2024-05-09T08:38:37.443Z,80.0452
2024-05-09T08:39:39.267Z,80.3172
2024-05-09T08:40:41.259Z,80.0423
2024-05-09T08:41:43.181Z,79.8872
2024-05-09T08:42:45.040Z,80.1787
2024-05-09T08:43:46.910Z,78.9991
2024-05-09T08:44:48.829Z,79.0790
2024-05-09T08:45:50.737Z,78.4726
2024-05-09T08:46:52.533Z,78.5803
2024-05-09T08:47:54.438Z,78.2242
2024-05-09T08:48:56.351Z,77.9866
2024-05-09T08:49:58.280Z,77.5802
2024-05-09T08:51:00.161Z,77.9594
2024-05-09T08:52:02.059Z,78.1266
2024-05-09T08:53:03.888Z,78.5671
2024-05-09T08:54:05.696Z,77.7704
2024-05-09T08:55:07.617Z,78.2496
2024-05-09T08:56:09.440Z,78.6449
2024-05-09T08:57:11.229Z,78.5645
2024-05-09T08:58:13.094Z,78.1627
2024-05-09T08:59:15.114Z,78.0218
2024-05-09T09:00:25.603Z,78.5520
2024-05-09T09:01:19.327Z,78.6834
2024-05-09T09:02:21.492Z,77.9698
2024-05-09T09:03:23.528Z,77.2609
2024-05-09T09:04:25.557Z,77.3305
2024-05-09T09:05:27.792Z,76.3218
2024-05-09T09:06:29.682Z,77.3091
2024-05-09T09:07:31.635Z,76.7351
2024-05-09T09:08:33.548Z,77.0402
2024-05-09T09:09:35.360Z,77.7700
2024-05-09T09:10:37.251Z,77.9752
2024-05-09T09:11:38.998Z,78.7559
2024-05-09T09:12:40.788Z,79.1617
2024-05-09T09:13:42.635Z,78.6938
2024-05-09T09:14:44.476Z,78.9104
2024-05-09T09:15:46.387Z,78.3524
2024-05-09T09:16:48.165Z,78.2618
2024-05-09T09:17:50.067Z,77.6165
2024-05-09T09:18:52.477Z,77.2993
2024-05-09T09:19:54.822Z,77.0466
2024-05-09T09:20:56.802Z,77.5113
2024-05-09T09:21:58.558Z,77.4941
2024-05-09T09:23:00.613Z,77.4817
2024-05-09T09:24:02.456Z,77.3861
2024-05-09T09:25:04.394Z,77.5965
2024-05-09T09:26:06.288Z,77.4917
2024-05-09T09:27:08.051Z,77.8301
2024-05-09T09:28:10.129Z,77.2835
2024-05-09T09:29:12.004Z,77.3020
2024-05-09T09:30:27.680Z,76.7984
2024-05-09T09:31:16.122Z,76.2325
2024-05-09T09:32:18.110Z,75.6920
2024-05-09T09:33:19.994Z,75.4294
2024-05-09T09:34:22.040Z,74.8031
2024-05-09T09:35:23.852Z,75.1404
2024-05-09T09:36:25.809Z,74.9353
2024-05-09T09:37:27.608Z,74.4821
2024-05-09T09:38:29.651Z,74.0351
2024-05-09T09:39:31.520Z,74.7220
2024-05-09T09:40:35.902Z,75.5372
2024-05-09T09:41:35.590Z,74.4093
2024-05-09T09:42:37.439Z,74.7208
2024-05-09T09:43:39.404Z,74.7523
2024-05-09T09:44:42.373Z,75.0861
2024-05-09T09:45:41.326Z,75.2466
2024-05-09T09:46:43.147Z,75.0297
2024-05-09T09:47:45.211Z,74.6853
2024-05-09T09:48:47.332Z,74.0392
2024-05-09T09:49:49.235Z,73.9035
2024-05-09T09:50:51.190Z,74.0740
2024-05-09T09:51:53.137Z,73.6408
2024-05-09T09:52:54.972Z,73.4600
2024-05-09T09:53:56.766Z,73.8019
2024-05-09T09:54:56.918Z,73.0504
2024-05-09T09:55:58.652Z,71.5458
2024-05-09T09:57:00.452Z,71.9068
2024-05-09T09:58:02.461Z,71.9038
2024-05-09T09:59:04.281Z,71.5372
2024-05-09T10:00:09.571Z,71.4346
2024-05-09T10:01:08.829Z,72.6143
2024-05-09T10:02:10.994Z,71.3026
2024-05-09T10:03:13.314Z,70.3935
2024-05-09T10:04:15.309Z,69.4365
2024-05-09T10:05:17.222Z,68.2969
2024-05-09T10:06:19.118Z,68.4159
2024-05-09T10:07:21.187Z,68.9481
2024-05-09T10:08:23.119Z,68.8129
2024-05-09T10:09:25.036Z,68.1353
2024-05-09T10:10:31.728Z,67.2550
2024-05-09T10:11:29.534Z,67.8647
2024-05-09T10:12:31.554Z,68.1688
2024-05-09T10:13:33.450Z,68.9824
2024-05-09T10:14:35.396Z,68.9631
2024-05-09T10:15:37.429Z,69.8652
2024-05-09T10:16:39.234Z,68.7157
2024-05-09T10:17:41.296Z,68.1096
2024-05-09T10:18:43.570Z,69.8457
2024-05-09T10:19:45.798Z,69.5512
2024-05-09T10:20:47.675Z,69.7697
2024-05-09T10:21:49.737Z,69.8596
2024-05-09T10:22:51.740Z,69.1132
2024-05-09T10:23:53.806Z,68.7477
2024-05-09T10:24:55.740Z,68.4468
2024-05-09T10:25:57.584Z,68.3332
2024-05-09T10:26:59.438Z,68.2290
2024-05-09T10:28:01.480Z,67.9912
2024-05-09T10:29:03.584Z,67.5529
2024-05-09T10:30:11.504Z,67.0991
2024-05-09T10:31:07.964Z,67.0683
2024-05-09T10:32:09.958Z,66.3859
2024-05-09T10:33:12.180Z,67.0362
2024-05-09T10:34:14.289Z,66.8229
2024-05-09T10:35:16.284Z,67.1227
2024-05-09T10:36:18.173Z,67.2399
2024-05-09T10:37:20.280Z,68.1451
2024-05-09T10:38:22.124Z,68.8603
2024-05-09T10:39:24.053Z,68.3525
2024-05-09T10:40:31.096Z,68.3744
2024-05-09T10:41:28.396Z,68.4572
2024-05-09T10:42:30.308Z,69.1082
2024-05-09T10:43:32.420Z,69.4272
2024-05-09T10:44:34.424Z,69.1495
2024-05-09T10:45:36.467Z,69.0047
2024-05-09T10:46:38.298Z,69.7019
2024-05-09T10:47:40.324Z,70.0118
2024-05-09T10:48:42.562Z,70.1836
2024-05-09T10:49:44.564Z,70.6224
2024-05-09T10:50:46.399Z,70.2016
2024-05-09T10:51:48.380Z,69.9345
2024-05-09T10:52:50.463Z,69.5689
2024-05-09T10:53:52.298Z,69.2828
2024-05-09T10:54:54.482Z,69.3902
2024-05-09T10:55:56.402Z,69.2561
2024-05-09T10:56:58.199Z,68.9870
2024-05-09T10:58:00.333Z,67.7936
2024-05-09T10:59:02.296Z,66.7026
2024-05-09T11:00:06.307Z,66.4406
2024-05-09T11:01:06.662Z,65.9714
2024-05-09T11:02:06.752Z,66.6131
2024-05-09T11:03:08.797Z,66.9977
2024-05-09T11:04:10.775Z,66.4126
2024-05-09T11:05:12.941Z,66.0278
2024-05-09T11:06:14.905Z,65.0441
2024-05-09T11:07:17.076Z,64.9962
2024-05-09T11:08:18.923Z,63.9019
2024-05-09T11:09:20.867Z,64.0086
2024-05-09T11:10:55.334Z,64.7680
2024-05-09T11:11:57.365Z,63.9035
2024-05-09T11:12:59.445Z,64.2988
2024-05-09T11:14:01.295Z,62.2672
2024-05-09T11:15:03.240Z,63.1739
2024-05-09T11:16:05.361Z,63.9333
2024-05-09T11:17:07.430Z,64.6843
2024-05-09T11:18:09.319Z,65.2951
2024-05-09T11:19:11.276Z,65.3903
2024-05-09T11:20:19.660Z,65.0138
2024-05-09T11:21:15.712Z,64.9364
2024-05-09T11:22:17.769Z,63.6236
2024-05-09T11:23:19.717Z,62.7701
2024-05-09T11:24:21.525Z,62.6069
2024-05-09T11:25:23.489Z,62.1470
2024-05-09T11:26:25.605Z,62.7540
2024-05-09T11:27:27.465Z,62.5099
2024-05-09T11:28:29.273Z,61.6574
2024-05-09T11:29:31.103Z,61.6234
2024-05-09T11:30:32.917Z,62.7015
2024-05-09T11:31:35.019Z,63.0557
2024-05-09T11:32:37.066Z,65.1094
2024-05-09T11:33:39.403Z,63.8523
2024-05-09T11:34:41.547Z,63.8229
2024-05-09T11:35:43.543Z,63.5350
2024-05-09T11:36:45.589Z,63.6211
2024-05-09T11:37:47.414Z,65.0988
2024-05-09T11:38:49.519Z,63.2973
2024-05-09T11:39:51.553Z,63.8802
2024-05-09T11:40:53.428Z,64.5259
2024-05-09T11:41:55.409Z,65.8309
2024-05-09T11:42:57.347Z,64.9408
2024-05-09T11:43:59.197Z,64.7159
2024-05-09T11:45:01.313Z,62.8054
2024-05-09T11:46:03.783Z,62.9401
2024-05-09T11:47:03.573Z,62.4381
2024-05-09T11:48:05.707Z,62.6750
2024-05-09T11:49:07.885Z,62.7343
2024-05-09T11:50:15.999Z,62.9858
2024-05-09T11:51:11.904Z,63.7448
2024-05-09T11:52:13.991Z,63.5163
2024-05-09T11:53:16.054Z,64.4472
2024-05-09T11:54:17.860Z,64.8986
2024-05-09T11:55:19.903Z,65.6410
2024-05-09T11:56:22.010Z,65.6569
2024-05-09T11:57:23.957Z,65.8140
2024-05-09T11:58:25.796Z,66.3701
2024-05-09T11:59:27.618Z,66.8033
2024-05-09T12:00:36.513Z,65.5226
2024-05-09T12:01:32.385Z,65.3139
2024-05-09T12:02:34.414Z,65.7816
2024-05-09T12:03:36.628Z,65.1112
2024-05-09T12:04:38.785Z,65.3410
2024-05-09T12:05:41.065Z,64.6490
2024-05-09T12:06:43.222Z,64.5180
2024-05-09T12:07:45.160Z,64.7779
2024-05-09T12:08:46.956Z,64.8961
2024-05-09T12:09:48.929Z,64.3152
2024-05-09T12:10:50.885Z,62.0165
2024-05-09T12:11:53.131Z,62.7922
2024-05-09T12:12:55.278Z,61.2087
2024-05-09T12:13:57.329Z,61.4556
2024-05-09T12:14:59.291Z,62.2582
2024-05-09T12:16:01.260Z,63.3206
2024-05-09T12:17:03.427Z,62.7789
2024-05-09T12:18:05.505Z,63.5232
2024-05-09T12:19:07.588Z,63.4743
2024-05-09T12:20:17.425Z,63.2902
2024-05-09T12:21:11.776Z,63.9809
2024-05-09T12:22:13.719Z,63.3136
2024-05-09T12:23:15.644Z,63.8591
2024-05-09T12:24:18.531Z,61.8606
2024-05-09T12:25:18.113Z,61.3466
2024-05-09T12:26:20.028Z,61.8258
2024-05-09T12:27:22.167Z,62.4882
2024-05-09T12:28:24.168Z,62.0738
2024-05-09T12:29:26.199Z,61.2843
2024-05-09T12:30:35.771Z,60.3847
2024-05-09T12:31:30.577Z,62.1630
2024-05-09T12:32:32.657Z,62.2368
2024-05-09T12:33:34.729Z,61.6462